sensor_id;sensor_type;location;lat;lon;timestamp;P1;durP1;ratioP1;P2;durP2;ratioP2
4200;SDS011;2114;50.398;8.814;2022-07-30T00:00:22;2.67;;;2.47;;
4200;SDS011;2114;50.398;8.814;2022-07-30T00:05:23;4.23;;;2.90;;
4200;SDS011;2114;50.398;8.814;2022-07-30T00:10:24;5.80;;;3.00;;
4200;SDS011;2114;50.398;8.814;2022-07-30T00:15:26;5.03;;;3.30;;
4200;SDS011;2114;50.398;8.814;2022-07-30T00:20:27;6.50;;;3.73;;
4200;SDS011;2114;50.398;8.814;2022-07-30T00:25:28;4.33;;;3.23;;
4200;SDS011;2114;50.398;8.814;2022-07-30T00:30:29;5.93;;;2.73;;
4200;SDS011;2114;50.398;8.814;2022-07-30T00:35:30;3.00;;;2.70;;
4200;SDS011;2114;50.398;8.814;2022-07-30T00:40:30;3.63;;;3.30;;
4200;SDS011;2114;50.398;8.814;2022-07-30T00:45:31;4.43;;;2.77;;
4200;SDS011;2114;50.398;8.814;2022-07-30T00:50:33;3.10;;;2.80;;
4200;SDS011;2114;50.398;8.814;2022-07-30T00:55:34;4.03;;;2.83;;
4200;SDS011;2114;50.398;8.814;2022-07-30T01:00:34;4.90;;;3.10;;
4200;SDS011;2114;50.398;8.814;2022-07-30T01:05:35;4.00;;;2.77;;
4200;SDS011;2114;50.398;8.814;2022-07-30T01:10:36;15.33;;;3.33;;
4200;SDS011;2114;50.398;8.814;2022-07-30T01:15:36;3.30;;;2.60;;
4200;SDS011;2114;50.398;8.814;2022-07-30T01:20:59;3.70;;;2.80;;
4200;SDS011;2114;50.398;8.814;2022-07-30T01:26:09;3.23;;;2.53;;
4200;SDS011;2114;50.398;8.814;2022-07-30T01:31:13;2.90;;;2.20;;
4200;SDS011;2114;50.398;8.814;2022-07-30T01:36:16;5.20;;;3.33;;
4200;SDS011;2114;50.398;8.814;2022-07-30T01:41:19;4.40;;;2.80;;
4200;SDS011;2114;50.398;8.814;2022-07-30T01:46:21;3.30;;;3.03;;
4200;SDS011;2114;50.398;8.814;2022-07-30T01:51:24;4.20;;;2.87;;
4200;SDS011;2114;50.398;8.814;2022-07-30T01:56:26;3.07;;;2.60;;
4200;SDS011;2114;50.398;8.814;2022-07-30T02:01:29;8.10;;;2.73;;
4200;SDS011;2114;50.398;8.814;2022-07-30T02:06:31;3.37;;;2.50;;
4200;SDS011;2114;50.398;8.814;2022-07-30T02:11:42;4.40;;;3.23;;
4200;SDS011;2114;50.398;8.814;2022-07-30T02:17:02;2.80;;;2.43;;
4200;SDS011;2114;50.398;8.814;2022-07-30T02:22:07;3.50;;;2.83;;
4200;SDS011;2114;50.398;8.814;2022-07-30T02:27:17;3.37;;;2.67;;
4200;SDS011;2114;50.398;8.814;2022-07-30T02:32:22;3.37;;;2.70;;
4200;SDS011;2114;50.398;8.814;2022-07-30T02:37:25;4.50;;;3.40;;
4200;SDS011;2114;50.398;8.814;2022-07-30T02:42:29;4.53;;;3.00;;
4200;SDS011;2114;50.398;8.814;2022-07-30T02:47:31;3.30;;;3.00;;
4200;SDS011;2114;50.398;8.814;2022-07-30T02:52:34;6.20;;;3.57;;
4200;SDS011;2114;50.398;8.814;2022-07-30T02:57:36;3.30;;;3.00;;
4200;SDS011;2114;50.398;8.814;2022-07-30T03:02:38;5.73;;;3.37;;
4200;SDS011;2114;50.398;8.814;2022-07-30T03:07:40;5.83;;;4.30;;
4200;SDS011;2114;50.398;8.814;2022-07-30T03:12:44;4.03;;;2.30;;
4200;SDS011;2114;50.398;8.814;2022-07-30T03:17:48;6.77;;;4.00;;
4200;SDS011;2114;50.398;8.814;2022-07-30T03:22:52;3.03;;;2.80;;
4200;SDS011;2114;50.398;8.814;2022-07-30T03:27:54;5.87;;;4.60;;
4200;SDS011;2114;50.398;8.814;2022-07-30T03:32:57;3.63;;;3.33;;
4200;SDS011;2114;50.398;8.814;2022-07-30T03:37:58;6.00;;;3.37;;
4200;SDS011;2114;50.398;8.814;2022-07-30T03:43:00;6.83;;;3.50;;
4200;SDS011;2114;50.398;8.814;2022-07-30T03:48:00;6.07;;;3.27;;
4200;SDS011;2114;50.398;8.814;2022-07-30T03:53:02;7.93;;;3.90;;
4200;SDS011;2114;50.398;8.814;2022-07-30T03:58:05;7.57;;;4.00;;
4200;SDS011;2114;50.398;8.814;2022-07-30T04:03:05;4.83;;;4.13;;
4200;SDS011;2114;50.398;8.814;2022-07-30T04:08:06;5.20;;;4.50;;
4200;SDS011;2114;50.398;8.814;2022-07-30T04:13:07;5.70;;;4.20;;
4200;SDS011;2114;50.398;8.814;2022-07-30T04:18:07;5.93;;;3.53;;
4200;SDS011;2114;50.398;8.814;2022-07-30T04:23:10;5.27;;;3.80;;
4200;SDS011;2114;50.398;8.814;2022-07-30T04:28:12;7.50;;;4.90;;
4200;SDS011;2114;50.398;8.814;2022-07-30T04:33:13;9.83;;;5.00;;
4200;SDS011;2114;50.398;8.814;2022-07-30T04:38:14;5.77;;;4.47;;
4200;SDS011;2114;50.398;8.814;2022-07-30T04:43:16;4.30;;;3.77;;
4200;SDS011;2114;50.398;8.814;2022-07-30T04:48:17;5.23;;;4.13;;
4200;SDS011;2114;50.398;8.814;2022-07-30T04:53:17;5.30;;;3.83;;
4200;SDS011;2114;50.398;8.814;2022-07-30T04:58:19;6.03;;;4.10;;
4200;SDS011;2114;50.398;8.814;2022-07-30T05:03:20;4.90;;;4.00;;
4200;SDS011;2114;50.398;8.814;2022-07-30T05:08:23;4.53;;;3.67;;
4200;SDS011;2114;50.398;8.814;2022-07-30T05:13:24;4.70;;;3.97;;
4200;SDS011;2114;50.398;8.814;2022-07-30T05:18:25;7.20;;;4.00;;
4200;SDS011;2114;50.398;8.814;2022-07-30T05:23:25;4.63;;;4.23;;
4200;SDS011;2114;50.398;8.814;2022-07-30T05:28:26;7.43;;;4.90;;
4200;SDS011;2114;50.398;8.814;2022-07-30T05:33:26;8.77;;;4.43;;
4200;SDS011;2114;50.398;8.814;2022-07-30T05:38:27;4.03;;;3.63;;
4200;SDS011;2114;50.398;8.814;2022-07-30T05:43:28;3.73;;;3.43;;
4200;SDS011;2114;50.398;8.814;2022-07-30T05:48:29;10.33;;;4.57;;
4200;SDS011;2114;50.398;8.814;2022-07-30T05:53:31;5.83;;;3.73;;
4200;SDS011;2114;50.398;8.814;2022-07-30T05:58:34;7.13;;;4.73;;
4200;SDS011;2114;50.398;8.814;2022-07-30T06:03:35;10.80;;;4.90;;
4200;SDS011;2114;50.398;8.814;2022-07-30T06:08:35;7.53;;;4.90;;
4200;SDS011;2114;50.398;8.814;2022-07-30T06:13:36;6.03;;;4.00;;
4200;SDS011;2114;50.398;8.814;2022-07-30T06:18:37;4.60;;;3.73;;
4200;SDS011;2114;50.398;8.814;2022-07-30T06:23:37;5.30;;;4.80;;
4200;SDS011;2114;50.398;8.814;2022-07-30T06:28:38;4.17;;;3.80;;
4200;SDS011;2114;50.398;8.814;2022-07-30T06:33:39;4.37;;;3.93;;
4200;SDS011;2114;50.398;8.814;2022-07-30T06:38:40;6.20;;;5.37;;
4200;SDS011;2114;50.398;8.814;2022-07-30T06:43:40;5.00;;;3.77;;
4200;SDS011;2114;50.398;8.814;2022-07-30T06:48:42;7.57;;;5.00;;
4200;SDS011;2114;50.398;8.814;2022-07-30T06:53:42;6.40;;;4.80;;
4200;SDS011;2114;50.398;8.814;2022-07-30T06:58:44;5.70;;;4.03;;
4200;SDS011;2114;50.398;8.814;2022-07-30T07:03:45;6.03;;;4.40;;
4200;SDS011;2114;50.398;8.814;2022-07-30T07:08:46;9.73;;;4.83;;
4200;SDS011;2114;50.398;8.814;2022-07-30T07:13:46;4.80;;;4.40;;
4200;SDS011;2114;50.398;8.814;2022-07-30T07:18:47;6.00;;;4.10;;
4200;SDS011;2114;50.398;8.814;2022-07-30T07:23:48;7.80;;;4.63;;
4200;SDS011;2114;50.398;8.814;2022-07-30T07:28:48;17.07;;;5.23;;
4200;SDS011;2114;50.398;8.814;2022-07-30T07:33:49;6.00;;;4.70;;
4200;SDS011;2114;50.398;8.814;2022-07-30T07:38:50;7.40;;;5.77;;
4200;SDS011;2114;50.398;8.814;2022-07-30T07:43:51;6.60;;;4.90;;
4200;SDS011;2114;50.398;8.814;2022-07-30T07:48:52;9.27;;;5.00;;
4200;SDS011;2114;50.398;8.814;2022-07-30T07:53:52;10.03;;;6.00;;
4200;SDS011;2114;50.398;8.814;2022-07-30T07:58:53;8.03;;;5.53;;
4200;SDS011;2114;50.398;8.814;2022-07-30T08:03:53;6.10;;;4.83;;
4200;SDS011;2114;50.398;8.814;2022-07-30T08:08:54;12.93;;;5.10;;
4200;SDS011;2114;50.398;8.814;2022-07-30T08:13:55;4.90;;;4.30;;
4200;SDS011;2114;50.398;8.814;2022-07-30T08:18:55;7.47;;;5.33;;
4200;SDS011;2114;50.398;8.814;2022-07-30T08:23:56;8.10;;;5.43;;
4200;SDS011;2114;50.398;8.814;2022-07-30T08:28:56;6.90;;;4.37;;
4200;SDS011;2114;50.398;8.814;2022-07-30T08:33:57;11.00;;;4.40;;
4200;SDS011;2114;50.398;8.814;2022-07-30T08:38:58;6.73;;;3.70;;
4200;SDS011;2114;50.398;8.814;2022-07-30T08:43:59;7.77;;;3.27;;
4200;SDS011;2114;50.398;8.814;2022-07-30T08:49:00;6.07;;;4.13;;
4200;SDS011;2114;50.398;8.814;2022-07-30T08:54:02;5.07;;;3.50;;
4200;SDS011;2114;50.398;8.814;2022-07-30T08:59:03;10.37;;;3.67;;
4200;SDS011;2114;50.398;8.814;2022-07-30T09:04:04;6.43;;;2.57;;
4200;SDS011;2114;50.398;8.814;2022-07-30T09:09:05;8.80;;;3.40;;
4200;SDS011;2114;50.398;8.814;2022-07-30T09:14:10;6.10;;;3.27;;
4200;SDS011;2114;50.398;8.814;2022-07-30T09:19:16;8.57;;;2.50;;
4200;SDS011;2114;50.398;8.814;2022-07-30T09:24:19;5.20;;;2.70;;
4200;SDS011;2114;50.398;8.814;2022-07-30T09:29:21;13.83;;;3.37;;
4200;SDS011;2114;50.398;8.814;2022-07-30T09:39:35;8.30;;;2.77;;
4200;SDS011;2114;50.398;8.814;2022-07-30T09:44:40;3.10;;;2.33;;
4200;SDS011;2114;50.398;8.814;2022-07-30T09:49:40;9.60;;;3.17;;
4200;SDS011;2114;50.398;8.814;2022-07-30T09:54:46;7.50;;;2.50;;
4200;SDS011;2114;50.398;8.814;2022-07-30T09:59:48;12.33;;;2.60;;
4200;SDS011;2114;50.398;8.814;2022-07-30T10:04:49;11.67;;;2.17;;
4200;SDS011;2114;50.398;8.814;2022-07-30T10:09:50;4.90;;;2.60;;
4200;SDS011;2114;50.398;8.814;2022-07-30T10:14:53;8.10;;;2.20;;
4200;SDS011;2114;50.398;8.814;2022-07-30T10:19:55;8.80;;;2.17;;
4200;SDS011;2114;50.398;8.814;2022-07-30T10:24:56;3.77;;;1.67;;
4200;SDS011;2114;50.398;8.814;2022-07-30T10:29:57;4.97;;;2.00;;
4200;SDS011;2114;50.398;8.814;2022-07-30T10:34:59;2.20;;;1.77;;
4200;SDS011;2114;50.398;8.814;2022-07-30T10:50:52;3.90;;;2.60;;
4200;SDS011;2114;50.398;8.814;2022-07-30T10:56:08;3.57;;;2.23;;
4200;SDS011;2114;50.398;8.814;2022-07-30T11:01:19;2.53;;;2.10;;
4200;SDS011;2114;50.398;8.814;2022-07-30T11:16:23;3.13;;;1.97;;
4200;SDS011;2114;50.398;8.814;2022-07-30T11:21:45;2.60;;;1.87;;
4200;SDS011;2114;50.398;8.814;2022-07-30T11:26:49;3.27;;;2.57;;
4200;SDS011;2114;50.398;8.814;2022-07-30T11:31:50;3.67;;;2.60;;
4200;SDS011;2114;50.398;8.814;2022-07-30T11:47:30;4.93;;;2.20;;
4200;SDS011;2114;50.398;8.814;2022-07-30T11:52:31;4.27;;;2.47;;
4200;SDS011;2114;50.398;8.814;2022-07-30T11:57:39;2.70;;;1.90;;
4200;SDS011;2114;50.398;8.814;2022-07-30T12:02:40;7.60;;;2.53;;
4200;SDS011;2114;50.398;8.814;2022-07-30T12:07:41;2.40;;;2.20;;
4200;SDS011;2114;50.398;8.814;2022-07-30T12:12:42;8.67;;;2.80;;
4200;SDS011;2114;50.398;8.814;2022-07-30T12:17:44;3.33;;;2.70;;
4200;SDS011;2114;50.398;8.814;2022-07-30T12:22:45;4.27;;;2.53;;
4200;SDS011;2114;50.398;8.814;2022-07-30T12:27:47;2.63;;;1.90;;
4200;SDS011;2114;50.398;8.814;2022-07-30T12:32:48;2.00;;;1.90;;
4200;SDS011;2114;50.398;8.814;2022-07-30T12:38:02;1.90;;;1.80;;
4200;SDS011;2114;50.398;8.814;2022-07-30T12:43:03;20.93;;;2.87;;
4200;SDS011;2114;50.398;8.814;2022-07-30T12:48:08;2.97;;;2.70;;
4200;SDS011;2114;50.398;8.814;2022-07-30T12:53:09;7.23;;;2.10;;
4200;SDS011;2114;50.398;8.814;2022-07-30T12:58:10;4.90;;;2.77;;
4200;SDS011;2114;50.398;8.814;2022-07-30T13:03:24;3.30;;;2.90;;
4200;SDS011;2114;50.398;8.814;2022-07-30T13:13:53;4.17;;;2.23;;
4200;SDS011;2114;50.398;8.814;2022-07-30T13:18:54;5.27;;;2.30;;
4200;SDS011;2114;50.398;8.814;2022-07-30T13:23:54;4.23;;;2.63;;
4200;SDS011;2114;50.398;8.814;2022-07-30T13:28:56;3.60;;;2.30;;
4200;SDS011;2114;50.398;8.814;2022-07-30T13:33:57;3.40;;;2.50;;
4200;SDS011;2114;50.398;8.814;2022-07-30T13:38:57;3.97;;;2.10;;
4200;SDS011;2114;50.398;8.814;2022-07-30T13:43:58;6.57;;;1.90;;
4200;SDS011;2114;50.398;8.814;2022-07-30T13:48:58;2.40;;;2.07;;
4200;SDS011;2114;50.398;8.814;2022-07-30T13:53:59;7.67;;;4.40;;
4200;SDS011;2114;50.398;8.814;2022-07-30T13:59:00;2.57;;;2.37;;
4200;SDS011;2114;50.398;8.814;2022-07-30T14:04:00;1.70;;;1.60;;
4200;SDS011;2114;50.398;8.814;2022-07-30T14:09:01;3.03;;;1.73;;
4200;SDS011;2114;50.398;8.814;2022-07-30T14:14:02;3.67;;;1.97;;
4200;SDS011;2114;50.398;8.814;2022-07-30T14:19:03;1.40;;;1.30;;
4200;SDS011;2114;50.398;8.814;2022-07-30T14:24:04;2.03;;;1.70;;
4200;SDS011;2114;50.398;8.814;2022-07-30T14:29:05;6.43;;;2.00;;
4200;SDS011;2114;50.398;8.814;2022-07-30T14:34:06;2.80;;;1.83;;
4200;SDS011;2114;50.398;8.814;2022-07-30T14:39:06;1.10;;;1.10;;
4200;SDS011;2114;50.398;8.814;2022-07-30T14:44:07;1.53;;;1.43;;
4200;SDS011;2114;50.398;8.814;2022-07-30T14:49:11;1.40;;;1.30;;
4200;SDS011;2114;50.398;8.814;2022-07-30T14:54:11;2.60;;;1.87;;
4200;SDS011;2114;50.398;8.814;2022-07-30T14:59:12;5.63;;;1.60;;
4200;SDS011;2114;50.398;8.814;2022-07-30T15:04:13;2.90;;;1.40;;
4200;SDS011;2114;50.398;8.814;2022-07-30T15:09:14;1.40;;;1.30;;
4200;SDS011;2114;50.398;8.814;2022-07-30T15:14:14;1.10;;;1.00;;
4200;SDS011;2114;50.398;8.814;2022-07-30T15:19:15;2.10;;;1.63;;
4200;SDS011;2114;50.398;8.814;2022-07-30T15:24:15;2.50;;;1.50;;
4200;SDS011;2114;50.398;8.814;2022-07-30T15:29:16;2.03;;;1.77;;
4200;SDS011;2114;50.398;8.814;2022-07-30T15:34:16;2.53;;;1.40;;
4200;SDS011;2114;50.398;8.814;2022-07-30T15:39:17;2.90;;;1.60;;
4200;SDS011;2114;50.398;8.814;2022-07-30T15:44:18;1.20;;;1.10;;
4200;SDS011;2114;50.398;8.814;2022-07-30T15:49:18;3.07;;;1.27;;
4200;SDS011;2114;50.398;8.814;2022-07-30T15:54:20;4.10;;;1.30;;
4200;SDS011;2114;50.398;8.814;2022-07-30T15:59:23;1.20;;;1.07;;
4200;SDS011;2114;50.398;8.814;2022-07-30T16:04:24;2.93;;;1.50;;
4200;SDS011;2114;50.398;8.814;2022-07-30T16:09:26;2.47;;;1.87;;
4200;SDS011;2114;50.398;8.814;2022-07-30T16:14:27;2.17;;;1.77;;
4200;SDS011;2114;50.398;8.814;2022-07-30T16:19:27;2.30;;;1.70;;
4200;SDS011;2114;50.398;8.814;2022-07-30T16:24:28;2.70;;;1.50;;
4200;SDS011;2114;50.398;8.814;2022-07-30T16:29:29;2.10;;;1.93;;
4200;SDS011;2114;50.398;8.814;2022-07-30T16:34:29;2.80;;;1.70;;
4200;SDS011;2114;50.398;8.814;2022-07-30T16:39:31;3.90;;;1.70;;
4200;SDS011;2114;50.398;8.814;2022-07-30T16:44:32;1.60;;;1.50;;
4200;SDS011;2114;50.398;8.814;2022-07-30T16:49:33;6.00;;;2.47;;
4200;SDS011;2114;50.398;8.814;2022-07-30T16:54:33;1.40;;;1.30;;
4200;SDS011;2114;50.398;8.814;2022-07-30T16:59:34;1.93;;;1.60;;
4200;SDS011;2114;50.398;8.814;2022-07-30T17:04:36;6.10;;;2.00;;
4200;SDS011;2114;50.398;8.814;2022-07-30T17:09:37;2.13;;;1.80;;
4200;SDS011;2114;50.398;8.814;2022-07-30T17:14:39;3.23;;;2.00;;
4200;SDS011;2114;50.398;8.814;2022-07-30T17:19:40;2.70;;;1.80;;
4200;SDS011;2114;50.398;8.814;2022-07-30T17:24:41;4.37;;;2.00;;
4200;SDS011;2114;50.398;8.814;2022-07-30T17:29:42;4.00;;;1.70;;
4200;SDS011;2114;50.398;8.814;2022-07-30T17:34:42;3.73;;;1.93;;
4200;SDS011;2114;50.398;8.814;2022-07-30T17:39:43;1.80;;;1.43;;
4200;SDS011;2114;50.398;8.814;2022-07-30T17:44:44;4.70;;;4.13;;
4200;SDS011;2114;50.398;8.814;2022-07-30T17:49:44;1.90;;;1.73;;
4200;SDS011;2114;50.398;8.814;2022-07-30T17:54:45;2.10;;;1.70;;
4200;SDS011;2114;50.398;8.814;2022-07-30T17:59:45;2.20;;;1.80;;
4200;SDS011;2114;50.398;8.814;2022-07-30T18:04:46;6.23;;;2.77;;
4200;SDS011;2114;50.398;8.814;2022-07-30T18:09:46;1.87;;;1.77;;
4200;SDS011;2114;50.398;8.814;2022-07-30T18:14:47;2.80;;;1.73;;
4200;SDS011;2114;50.398;8.814;2022-07-30T18:19:48;2.87;;;1.60;;
4200;SDS011;2114;50.398;8.814;2022-07-30T18:24:48;2.13;;;1.93;;
4200;SDS011;2114;50.398;8.814;2022-07-30T18:29:49;2.03;;;1.77;;
4200;SDS011;2114;50.398;8.814;2022-07-30T18:34:50;10.53;;;1.90;;
4200;SDS011;2114;50.398;8.814;2022-07-30T18:39:50;3.57;;;2.30;;
4200;SDS011;2114;50.398;8.814;2022-07-30T18:44:51;2.70;;;1.73;;
4200;SDS011;2114;50.398;8.814;2022-07-30T18:49:51;3.03;;;2.10;;
4200;SDS011;2114;50.398;8.814;2022-07-30T18:54:54;2.30;;;2.10;;
4200;SDS011;2114;50.398;8.814;2022-07-30T18:59:54;5.20;;;2.17;;
4200;SDS011;2114;50.398;8.814;2022-07-30T19:04:55;2.17;;;1.93;;
4200;SDS011;2114;50.398;8.814;2022-07-30T19:09:57;7.73;;;1.90;;
4200;SDS011;2114;50.398;8.814;2022-07-30T19:15:00;2.37;;;2.17;;
4200;SDS011;2114;50.398;8.814;2022-07-30T19:20:01;4.60;;;1.97;;
4200;SDS011;2114;50.398;8.814;2022-07-30T19:25:03;2.20;;;2.00;;
4200;SDS011;2114;50.398;8.814;2022-07-30T19:30:04;5.07;;;2.03;;
4200;SDS011;2114;50.398;8.814;2022-07-30T19:35:05;2.77;;;2.10;;
4200;SDS011;2114;50.398;8.814;2022-07-30T19:40:07;3.13;;;2.33;;
4200;SDS011;2114;50.398;8.814;2022-07-30T19:45:08;4.67;;;2.30;;
4200;SDS011;2114;50.398;8.814;2022-07-30T19:50:10;3.33;;;2.07;;
4200;SDS011;2114;50.398;8.814;2022-07-30T19:55:11;4.83;;;2.50;;
4200;SDS011;2114;50.398;8.814;2022-07-30T20:00:12;2.77;;;2.33;;
4200;SDS011;2114;50.398;8.814;2022-07-30T20:05:13;4.73;;;2.40;;
4200;SDS011;2114;50.398;8.814;2022-07-30T20:10:14;2.53;;;2.10;;
4200;SDS011;2114;50.398;8.814;2022-07-30T20:15:15;3.60;;;2.07;;
4200;SDS011;2114;50.398;8.814;2022-07-30T20:20:16;2.83;;;2.37;;
4200;SDS011;2114;50.398;8.814;2022-07-30T20:25:16;3.03;;;2.23;;
4200;SDS011;2114;50.398;8.814;2022-07-30T20:30:18;4.40;;;2.37;;
4200;SDS011;2114;50.398;8.814;2022-07-30T20:35:18;3.57;;;2.00;;
4200;SDS011;2114;50.398;8.814;2022-07-30T20:40:20;4.50;;;2.07;;
4200;SDS011;2114;50.398;8.814;2022-07-30T20:45:21;2.83;;;2.50;;
4200;SDS011;2114;50.398;8.814;2022-07-30T20:50:22;17.10;;;3.03;;
4200;SDS011;2114;50.398;8.814;2022-07-30T20:55:23;2.53;;;1.77;;
4200;SDS011;2114;50.398;8.814;2022-07-30T21:00:24;6.43;;;3.60;;
4200;SDS011;2114;50.398;8.814;2022-07-30T21:05:25;5.67;;;2.20;;
4200;SDS011;2114;50.398;8.814;2022-07-30T21:10:25;2.20;;;2.00;;
4200;SDS011;2114;50.398;8.814;2022-07-30T21:15:26;2.63;;;2.10;;
4200;SDS011;2114;50.398;8.814;2022-07-30T21:20:27;2.10;;;1.60;;
4200;SDS011;2114;50.398;8.814;2022-07-30T21:25:31;5.20;;;2.00;;
4200;SDS011;2114;50.398;8.814;2022-07-30T21:30:32;3.30;;;1.80;;
4200;SDS011;2114;50.398;8.814;2022-07-30T21:35:32;2.00;;;1.80;;
4200;SDS011;2114;50.398;8.814;2022-07-30T21:40:33;3.23;;;2.03;;
4200;SDS011;2114;50.398;8.814;2022-07-30T21:45:34;3.23;;;2.13;;
4200;SDS011;2114;50.398;8.814;2022-07-30T21:50:35;3.20;;;2.17;;
4200;SDS011;2114;50.398;8.814;2022-07-30T21:55:39;3.33;;;2.77;;
4200;SDS011;2114;50.398;8.814;2022-07-30T22:05:49;3.30;;;2.33;;
4200;SDS011;2114;50.398;8.814;2022-07-30T22:10:50;6.70;;;2.60;;
4200;SDS011;2114;50.398;8.814;2022-07-30T22:15:52;3.27;;;1.90;;
4200;SDS011;2114;50.398;8.814;2022-07-30T22:20:53;2.50;;;2.30;;
4200;SDS011;2114;50.398;8.814;2022-07-30T22:25:54;8.40;;;2.10;;
4200;SDS011;2114;50.398;8.814;2022-07-30T22:30:55;2.83;;;1.87;;
4200;SDS011;2114;50.398;8.814;2022-07-30T22:35:55;4.70;;;2.73;;
4200;SDS011;2114;50.398;8.814;2022-07-30T22:40:57;2.17;;;1.97;;
4200;SDS011;2114;50.398;8.814;2022-07-30T22:45:58;2.80;;;2.00;;
4200;SDS011;2114;50.398;8.814;2022-07-30T22:50:59;7.20;;;3.30;;
4200;SDS011;2114;50.398;8.814;2022-07-30T22:56:00;3.30;;;2.37;;
4200;SDS011;2114;50.398;8.814;2022-07-30T23:01:01;3.23;;;1.90;;
4200;SDS011;2114;50.398;8.814;2022-07-30T23:06:01;5.97;;;2.27;;
4200;SDS011;2114;50.398;8.814;2022-07-30T23:11:02;2.97;;;2.70;;
4200;SDS011;2114;50.398;8.814;2022-07-30T23:16:03;14.43;;;1.77;;
4200;SDS011;2114;50.398;8.814;2022-07-30T23:21:04;2.30;;;2.10;;
4200;SDS011;2114;50.398;8.814;2022-07-30T23:26:05;2.23;;;2.03;;
4200;SDS011;2114;50.398;8.814;2022-07-30T23:31:07;2.67;;;2.03;;
4200;SDS011;2114;50.398;8.814;2022-07-30T23:36:08;2.50;;;2.27;;
4200;SDS011;2114;50.398;8.814;2022-07-30T23:41:09;2.47;;;1.93;;
4200;SDS011;2114;50.398;8.814;2022-07-30T23:46:09;2.23;;;1.93;;
4200;SDS011;2114;50.398;8.814;2022-07-30T23:51:10;6.60;;;2.30;;
4200;SDS011;2114;50.398;8.814;2022-07-30T23:56:14;4.20;;;1.83;;
